Terminal Aerodrome Forecast
Issued by NWS Northern Indiana

Home | Current Version | Previous Version | Text Only | Print | Product List | Glossary On
Versions: 1 2 3 4 5 6 7 8 9 10 11 12
000
FTUS43 KIWX 010539
TAFFWA
TAF
KFWA 010539Z 0106/0206 23003KT 6SM BR VCSH BKN050
     FM010900 23003KT 4SM BR SCT020
      TEMPO 0111/0112 2SM BR
     FM011400 23008KT P6SM SCT040
     FM020100 22004KT P6SM FEW060 SCT120=

USA.gov is the U.S. government's official web portal to all federal, state and local government web resources and services.